Time;durP1;ratioP1;P1;durP2;ratioP2;P2;SDS_P1;SDS_P2;PMS_P1;PMS_P2;Temp;Humidity;BMP_temperature;BMP_pressure;BME280_temperature;BME280_humidity;BME280_pressure;Samples;Min_cycle;Max_cycle;Signal;HPM_P1;HPM_P2
2020/12/02 00:00:17;;;;;;;26.63;15.40;;;;;;;17.57;47.37;101961.63;5053221;28;20041;-60
2020/12/02 00:03:10;;;;;;;27.92;14.63;;;;;;;17.42;47.57;101977.28;5052361;28;20040;-61
2020/12/02 00:05:36;;;;;;;27.05;13.75;;;;;;;17.46;47.75;101973.94;5050868;28;20049;-59
2020/12/02 00:08:19;;;;;;;26.90;14.23;;;;;;;17.57;47.44;101983.28;5053196;28;20087;-60
2020/12/02 00:10:44;;;;;;;25.40;13.50;;;;;;;17.70;46.98;101968.00;5052569;28;20040;-60
2020/12/02 00:13:33;;;;;;;26.40;14.83;;;;;;;17.80;46.82;101973.81;5052951;28;20045;-60
2020/12/02 00:16:00;;;;;;;25.10;14.27;;;;;;;17.77;46.83;101969.63;5052888;28;20082;-61
2020/12/02 00:18:26;;;;;;;25.30;14.43;;;;;;;17.63;47.15;101970.75;5053079;28;20076;-60
2020/12/02 00:20:52;;;;;;;24.92;13.40;;;;;;;17.51;47.38;101959.75;5052463;28;20051;-60
2020/12/02 00:23:18;;;;;;;26.70;14.07;;;;;;;17.60;47.43;101969.31;5051749;28;20037;-60
2020/12/02 00:25:44;;;;;;;27.90;14.18;;;;;;;17.47;47.57;101959.38;5052635;28;20389;-60
2020/12/02 00:28:11;;;;;;;31.05;14.85;;;;;;;17.57;47.26;101972.44;5053162;28;20037;-60
2020/12/02 00:30:37;;;;;;;24.88;13.30;;;;;;;17.40;47.37;101973.97;5052406;28;20467;-57
2020/12/02 00:33:10;;;;;;;25.23;14.30;;;;;;;17.32;47.73;101970.47;5053399;28;20056;-60
2020/12/02 00:35:36;;;;;;;24.75;13.43;;;;;;;17.44;47.34;101978.75;5052738;28;20029;-61
2020/12/02 00:38:04;;;;;;;27.17;14.35;;;;;;;17.43;47.24;101966.28;5053024;28;20029;-61
2020/12/02 00:40:30;;;;;;;26.33;15.20;;;;;;;17.40;47.48;101971.25;5054342;28;20053;-60
2020/12/02 00:42:55;;;;;;;30.17;14.87;;;;;;;16.90;48.88;101962.63;5052030;28;20079;-60
2020/12/02 00:45:21;;;;;;;30.63;16.77;;;;;;;17.11;48.31;101970.72;5052736;28;20025;-62
2020/12/02 00:47:50;;;;;;;28.50;15.60;;;;;;;17.42;47.63;101977.28;5052070;28;20098;-59
2020/12/02 00:50:17;;;;;;;26.33;14.18;;;;;;;17.34;47.86;101965.69;5050732;28;20033;-60
2020/12/02 00:53:03;;;;;;;31.10;14.80;;;;;;;17.36;47.81;101975.44;5050814;28;20041;-60
2020/12/02 00:55:29;;;;;;;28.27;15.10;;;;;;;17.43;47.73;101970.84;5051727;28;20037;-60
2020/12/02 00:57:55;;;;;;;26.63;14.63;;;;;;;17.18;48.18;101963.44;5052510;28;20032;-59
2020/12/02 01:00:22;;;;;;;27.70;15.23;;;;;;;17.27;47.97;101966.75;5052527;28;20040;-60
2020/12/02 01:03:02;;;;;;;27.40;14.75;;;;;;;17.23;48.02;101974.44;5052030;28;20040;-59
2020/12/02 01:05:30;;;;;;;25.90;14.73;;;;;;;17.30;47.75;101950.94;5053062;28;20544;-60
2020/12/02 01:08:17;;;;;;;29.15;14.63;;;;;;;17.46;47.44;101968.53;5051891;28;20037;-59
2020/12/02 01:10:44;;;;;;;28.17;14.55;;;;;;;17.37;47.53;101972.50;5051675;28;20550;-60
2020/12/02 01:13:09;;;;;;;32.42;14.40;;;;;;;17.17;48.24;101968.00;5052526;28;20086;-61
2020/12/02 01:15:36;;;;;;;26.07;13.80;;;;;;;17.28;48.00;101963.81;5051917;28;20392;-61
2020/12/02 01:18:25;;;;;;;26.52;14.90;;;;;;;17.42;47.44;101952.94;5051573;28;20543;-60
2020/12/02 01:21:12;;;;;;;27.80;13.88;;;;;;;17.09;48.14;101956.59;5051452;28;20033;-60
2020/12/02 01:23:38;;;;;;;26.05;13.77;;;;;;;17.22;47.79;101945.75;5052150;28;20069;-59
2020/12/02 01:26:05;;;;;;;26.13;14.48;;;;;;;17.49;47.11;101953.75;5051850;28;20107;-60
2020/12/02 01:28:33;;;;;;;26.98;14.25;;;;;;;17.57;46.97;101952.69;5052189;28;20033;-60
2020/12/02 01:31:00;;;;;;;28.05;14.68;;;;;;;17.59;46.92;101954.13;5051547;28;20041;-61
2020/12/02 01:33:26;;;;;;;;;;;;;;;17.62;47.02;101958.25;5052592;28;20033;-60
2020/12/02 01:35:53;;;;;;;27.85;14.60;;;;;;;17.58;46.86;101966.00;5061681;28;19920;-59
2020/12/02 01:38:31;;;;;;;27.35;14.50;;;;;;;17.63;46.74;101955.34;5068716;28;20029;-58
2020/12/02 01:40:58;;;;;;;29.85;15.57;;;;;;;17.68;46.74;101956.56;5059782;28;20052;-60
2020/12/02 01:43:24;;;;;;;31.83;15.23;;;;;;;17.67;46.75;101954.91;5050440;28;20041;-59
2020/12/02 01:45:53;;;;;;;25.88;14.10;;;;;;;17.50;47.23;101960.81;5049942;28;20124;-58
2020/12/02 01:48:56;;;;;;;30.08;15.95;;;;;;;17.44;47.50;101964.38;5051582;28;20037;-60
2020/12/02 01:51:59;;;;;;;27.70;14.43;;;;;;;17.66;46.63;101942.44;5051880;28;20037;-59
2020/12/02 01:54:44;;;;;;;30.70;15.52;;;;;;;17.68;46.68;101951.16;5051780;28;20435;-60
2020/12/02 01:57:21;;;;;;;29.55;14.48;;;;;;;17.59;46.69;101951.44;5051828;28;20048;-60
2020/12/02 02:00:14;;;;;;;29.90;14.50;;;;;;;17.25;47.68;101958.81;5050910;28;20112;-59
2020/12/02 02:03:02;;;;;;;25.45;13.73;;;;;;;17.02;48.56;101959.31;5055617;28;20526;-59
2020/12/02 02:05:30;;;;;;;28.30;14.30;;;;;;;17.29;47.99;101962.75;5053754;28;20499;-60
2020/12/02 02:07:56;;;;;;;25.55;13.82;;;;;;;17.59;46.82;101964.09;5054643;28;20044;-60
2020/12/02 02:10:35;;;;;;;34.47;15.27;;;;;;;17.39;46.95;101939.88;5055250;28;20412;-60
2020/12/02 02:13:22;;;;;;;25.58;12.75;;;;;;;17.32;47.43;101965.06;5054616;28;20044;-60
2020/12/02 02:15:50;;;;;;;31.25;14.68;;;;;;;17.42;47.39;101961.06;5054438;28;20037;-59
2020/12/02 02:18:18;;;;;;;28.42;13.60;;;;;;;17.20;47.63;101961.34;5055325;28;20041;-60
2020/12/02 02:20:48;;;;;;;33.15;15.02;;;;;;;17.04;47.97;101963.44;5054588;28;20040;-59
2020/12/02 02:23:16;;;;;;;27.40;14.80;;;;;;;16.94;48.43;101957.63;5055035;28;20029;-59
2020/12/02 02:26:02;;;;;;;26.58;14.60;;;;;;;17.19;48.14;101970.50;5054838;28;20045;-60
2020/12/02 02:28:31;;;;;;;25.13;13.55;;;;;;;17.02;48.43;101949.31;5055193;28;20041;-61
2020/12/02 02:30:57;;;;;;;25.92;13.50;;;;;;;17.10;48.49;101955.56;5054159;28;20264;-59
2020/12/02 02:33:24;;;;;;;26.30;14.13;;;;;;;17.20;47.97;101953.22;5054736;28;20056;-61
2020/12/02 02:35:50;;;;;;;27.90;14.02;;;;;;;17.31;47.68;101947.19;5054202;28;20048;-60
2020/12/02 02:38:19;;;;;;;29.23;13.80;;;;;;;17.17;47.95;101951.78;5053714;28;20045;-60
2020/12/02 02:40:46;;;;;;;25.95;13.85;;;;;;;17.20;47.88;101945.13;5054189;28;20039;-58
2020/12/02 02:43:11;;;;;;;;;;;;;;;16.98;48.50;101953.50;5055227;28;20037;-60
2020/12/02 02:45:37;;;;;;;24.77;12.77;;;;;;;17.02;48.43;101945.81;5054549;28;20454;-60
2020/12/02 02:48:06;;;;;;;26.37;13.73;;;;;;;16.63;49.53;101951.84;5054166;28;20044;-61
2020/12/02 02:50:35;;;;;;;25.27;13.75;;;;;;;16.58;49.87;101953.50;5053680;28;20548;-60
2020/12/02 02:53:02;;;;;;;27.85;14.00;;;;;;;16.71;49.41;101952.66;5052818;28;20074;-60
2020/12/02 02:55:28;;;;;;;29.25;13.80;;;;;;;16.65;49.85;101945.41;5054942;28;20040;-61
2020/12/02 02:57:56;;;;;;;29.27;14.18;;;;;;;16.67;49.66;101944.16;5054023;28;20036;-59
2020/12/02 03:00:29;;;;;;;27.75;13.02;;;;;;;16.89;49.14;101949.34;5054626;28;20044;-59
2020/12/02 03:02:56;;;;;;;26.38;13.68;;;;;;;16.86;48.78;101941.66;5053699;28;20082;-59
2020/12/02 03:05:23;;;;;;;25.00;12.57;;;;;;;17.08;48.42;101931.44;5052781;28;20052;-59
2020/12/02 03:07:54;;;;;;;;;;;;;;;17.03;48.46;101945.56;5053887;28;20037;-59
2020/12/02 03:10:23;;;;;;;27.17;13.88;;;;;;;16.99;48.57;101947.03;5054109;28;19916;-59
2020/12/02 03:12:48;;;;;;;26.42;13.50;;;;;;;16.83;48.76;101953.69;5052802;28;20033;-60
2020/12/02 03:15:15;;;;;;;23.25;12.57;;;;;;;17.00;48.39;101943.31;5053022;28;20037;-59
2020/12/02 03:17:41;;;;;;;27.60;13.88;;;;;;;17.01;48.39;101939.56;5052857;28;20052;-60
2020/12/02 03:20:20;;;;;;;23.27;12.80;;;;;;;16.80;49.29;101947.88;5053422;28;20408;-61
2020/12/02 03:22:48;;;;;;;27.95;13.77;;;;;;;16.80;49.01;101935.22;5054310;28;20033;-59
2020/12/02 03:25:19;;;;;;;27.35;13.55;;;;;;;16.78;49.44;101935.41;5054016;28;20051;-60
2020/12/02 03:27:45;;;;;;;28.45;14.82;;;;;;;16.82;49.16;101932.28;5054063;28;20045;-59
2020/12/02 03:30:11;;;;;;;32.78;14.18;;;;;;;16.63;49.73;101926.72;5053425;28;20120;-59
2020/12/02 03:32:36;;;;;;;28.10;14.33;;;;;;;16.93;49.16;101934.34;5053937;28;20163;-59
2020/12/02 03:35:04;;;;;;;25.47;13.17;;;;;;;16.88;48.96;101924.19;5054018;28;20041;-59
2020/12/02 03:37:29;;;;;;;27.88;13.80;;;;;;;16.85;49.38;101931.91;5054266;28;20135;-59
2020/12/02 03:39:55;;;;;;;27.40;14.00;;;;;;;16.82;49.30;101927.72;5052960;28;20112;-59
2020/12/02 03:42:21;;;;;;;28.07;13.97;;;;;;;16.87;49.69;101927.09;5053624;28;20029;-61
2020/12/02 03:44:48;;;;;;;29.40;13.98;;;;;;;16.86;49.37;101917.34;5053921;28;20472;-59
2020/12/02 03:47:14;;;;;;;34.22;15.32;;;;;;;16.80;49.44;101913.59;5053698;28;20041;-59
2020/12/02 03:49:39;;;;;;;30.42;15.70;;;;;;;16.82;49.39;101911.53;5053376;28;20040;-60
2020/12/02 03:52:05;;;;;;;32.37;14.77;;;;;;;16.98;49.29;101931.88;5051647;28;20033;-60
2020/12/02 03:54:30;;;;;;;31.33;14.25;;;;;;;17.00;48.92;101921.69;5052276;28;20441;-60
2020/12/02 03:56:56;;;;;;;34.33;14.77;;;;;;;17.22;48.22;101921.41;5052826;28;20037;-59
2020/12/02 03:59:21;;;;;;;30.10;14.97;;;;;;;17.18;48.26;101910.22;5053422;28;20444;-60
2020/12/02 04:01:47;;;;;;;30.13;14.63;;;;;;;17.24;48.15;101911.22;5053103;28;20036;-60
2020/12/02 04:04:12;;;;;;;28.30;14.50;;;;;;;17.23;47.59;101906.03;5052423;28;20052;-60
2020/12/02 04:06:38;;;;;;;30.73;15.20;;;;;;;17.00;48.48;101908.19;5053325;28;20043;-60
2020/12/02 04:09:03;;;;;;;28.03;14.03;;;;;;;16.96;48.99;101925.81;5052939;28;20040;-60
2020/12/02 04:11:29;;;;;;;29.00;13.97;;;;;;;17.02;48.94;101911.50;5053545;28;20037;-59
2020/12/02 04:13:54;;;;;;;32.10;15.13;;;;;;;16.86;49.05;101909.25;5051262;28;20086;-60
2020/12/02 04:16:20;;;;;;;32.37;15.53;;;;;;;16.38;50.89;101910.31;5051938;28;20076;-59
2020/12/02 04:18:45;;;;;;;33.60;14.63;;;;;;;16.61;50.51;101913.44;5053378;28;20120;-59
2020/12/02 04:21:11;;;;;;;32.80;14.77;;;;;;;16.81;49.93;101912.56;5052472;28;20483;-60
2020/12/02 04:23:36;;;;;;;35.77;14.97;;;;;;;16.72;49.92;101901.16;5052239;28;20120;-60
2020/12/02 04:26:02;;;;;;;34.83;14.67;;;;;;;16.51;50.88;101901.38;5051799;28;20034;-59
2020/12/02 04:28:28;;;;;;;29.67;14.85;;;;;;;16.68;50.38;101905.31;5052787;28;20037;-59
2020/12/02 04:30:53;;;;;;;30.53;14.60;;;;;;;16.65;50.42;101900.34;5052120;28;20045;-60
2020/12/02 04:33:19;;;;;;;30.00;15.00;;;;;;;16.65;50.52;101894.94;5052602;28;20485;-59
2020/12/02 04:35:44;;;;;;;30.47;14.73;;;;;;;16.68;50.01;101881.00;5052604;28;20041;-60
2020/12/02 04:38:10;;;;;;;33.77;15.90;;;;;;;16.76;50.00;101896.16;5052255;28;20127;-59
2020/12/02 04:40:39;;;;;;;36.20;14.68;;;;;;;16.82;50.21;101897.16;5052743;28;20456;-59
2020/12/02 04:43:13;;;;;;;30.90;14.30;;;;;;;16.73;50.02;101892.00;5050709;28;20410;-58
2020/12/02 04:45:39;;;;;;;29.98;14.00;;;;;;;17.04;49.41;101893.19;5053683;28;20178;-59
2020/12/02 04:48:11;;;;;;;36.45;16.95;;;;;;;16.92;49.48;101873.25;5051844;28;20532;-59
2020/12/02 04:50:37;;;;;;;33.42;16.27;;;;;;;17.00;49.15;101874.94;5062161;28;20040;-59
2020/12/02 04:53:14;;;;;;;31.98;16.17;;;;;;;16.85;49.54;101875.97;5071811;28;20468;-61
2020/12/02 04:55:42;;;;;;;31.05;14.65;;;;;;;16.80;49.88;101869.53;5072416;28;20032;-58
2020/12/02 04:58:36;;;;;;;30.92;14.80;;;;;;;16.81;49.81;101872.03;5070585;28;20036;-60
2020/12/02 05:01:23;;;;;;;37.15;15.85;;;;;;;16.86;49.63;101884.94;5071325;28;20117;-59
2020/12/02 05:03:49;;;;;;;32.97;15.07;;;;;;;16.91;49.52;101882.41;5055236;28;20033;-59
2020/12/02 05:06:38;;;;;;;35.87;16.83;;;;;;;17.08;49.20;101879.28;5052403;28;20178;-60
2020/12/02 05:09:24;;;;;;;34.75;14.40;;;;;;;17.09;48.75;101872.84;5051833;28;20583;-59
2020/12/02 05:12:00;;;;;;;31.02;15.18;;;;;;;17.19;48.36;101882.16;5052068;28;20033;-62
2020/12/02 05:14:35;;;;;;;31.13;14.45;;;;;;;16.87;49.40;101881.19;5066151;28;20484;-59
2020/12/02 05:17:16;;;;;;;36.92;17.40;;;;;;;16.96;49.39;101882.59;5072257;28;20036;-59
2020/12/02 05:19:43;;;;;;;36.97;16.42;;;;;;;16.83;49.75;101878.06;5072560;28;20033;-60
2020/12/02 05:22:15;;;;;;;32.53;15.02;;;;;;;16.97;49.09;101876.16;5071658;28;20039;-60
2020/12/02 05:24:58;;;;;;;36.50;16.67;;;;;;;16.96;48.93;101871.78;5070807;28;20400;-60
2020/12/02 05:27:31;;;;;;;37.05;16.27;;;;;;;17.02;49.15;101878.25;5072197;28;20030;-60
2020/12/02 05:30:25;;;;;;;36.10;17.05;;;;;;;17.05;48.68;101875.94;5071443;28;20045;-60
2020/12/02 05:33:13;;;;;;;33.80;14.75;;;;;;;17.05;48.49;101878.63;5071904;28;20510;-60
2020/12/02 05:35:45;;;;;;;36.85;16.40;;;;;;;16.86;49.72;101883.03;5073120;28;20063;-60
2020/12/02 05:38:19;;;;;;;34.53;15.48;;;;;;;16.99;49.05;101863.28;5075584;28;20032;-60
2020/12/02 05:40:45;;;;;;;40.92;17.02;;;;;;;17.03;48.87;101872.63;5076044;28;20487;-60
2020/12/02 05:43:17;;;;;;;43.53;18.25;;;;;;;17.13;48.77;101868.66;5075414;28;20032;-60
2020/12/02 05:45:46;;;;;;;43.58;16.77;;;;;;;17.01;49.11;101872.00;5076085;28;20033;-60
2020/12/02 05:48:21;;;;;;;37.67;18.35;;;;;;;16.94;49.38;101859.53;5074184;28;20395;-60
2020/12/02 05:50:47;;;;;;;39.15;16.70;;;;;;;16.91;49.53;101867.00;5076132;28;20045;-60
2020/12/02 05:53:25;;;;;;;39.15;16.95;;;;;;;16.76;49.52;101856.47;5064444;28;20461;-60
2020/12/02 05:55:53;;;;;;;42.88;18.63;;;;;;;16.81;49.84;101871.19;5055940;28;20460;-61
2020/12/02 05:58:24;;;;;;;39.53;16.63;;;;;;;16.85;49.81;101873.28;5054970;28;20453;-59
2020/12/02 06:00:49;;;;;;;40.42;16.50;;;;;;;16.99;49.29;101862.47;5055805;28;20249;-60
2020/12/02 06:03:18;;;;;;;39.63;16.37;;;;;;;16.90;49.36;101849.16;5055860;28;20101;-59
2020/12/02 06:05:43;;;;;;;38.10;15.63;;;;;;;17.09;48.82;101856.63;5057667;28;20069;-59
2020/12/02 06:08:11;;;;;;;42.53;17.30;;;;;;;16.95;49.19;101848.50;5068071;28;20086;-61
2020/12/02 06:10:43;;;;;;;40.00;17.05;;;;;;;17.04;48.88;101860.75;5075261;28;20032;-60
2020/12/02 06:13:17;;;;;;;38.30;16.20;;;;;;;16.90;49.24;101842.94;5068902;28;20480;-60
2020/12/02 06:15:42;;;;;;;41.90;16.38;;;;;;;16.70;50.12;101843.81;5075660;28;20101;-61
2020/12/02 06:18:26;;;;;;;31.90;16.03;;;;;;;16.73;50.14;101851.50;5073513;28;20028;-61
2020/12/02 06:20:51;;;;;;;37.17;17.40;;;;;;;16.97;49.07;101842.91;5075039;28;20071;-60
2020/12/02 06:23:17;;;;;;;36.63;17.63;;;;;;;17.24;48.47;101850.94;5064752;28;20705;-59
2020/12/02 06:25:54;;;;;;;38.70;17.00;;;;;;;16.87;49.67;101854.16;5055240;28;20090;-60
2020/12/02 06:28:28;;;;;;;34.40;16.50;;;;;;;16.77;49.58;101854.59;5054695;28;20111;-60
2020/12/02 06:31:02;;;;;;;35.22;15.55;;;;;;;16.68;49.94;101836.97;5062296;28;20064;-60
2020/12/02 06:33:36;;;;;;;36.78;15.40;;;;;;;16.66;50.10;101850.69;5075562;28;20071;-60
2020/12/02 06:36:29;;;;;;;34.17;16.38;;;;;;;16.79;49.74;101833.63;5074915;28;20472;-60
2020/12/02 06:39:10;;;;;;;34.05;16.30;;;;;;;16.58;50.90;101845.50;5073690;28;20120;-59
2020/12/02 06:41:38;;;;;;;35.38;16.90;;;;;;;16.68;50.27;101823.44;5073568;28;20040;-59
2020/12/02 06:44:13;;;;;;;36.15;16.85;;;;;;;16.73;50.37;101839.88;5072600;28;20040;-59
2020/12/02 06:46:41;;;;;;;39.13;16.67;;;;;;;16.80;50.22;101837.13;5074156;28;20040;-59
2020/12/02 06:49:09;;;;;;;36.85;16.50;;;;;;;16.81;50.21;101833.38;5073246;28;20117;-60
2020/12/02 06:51:34;;;;;;;40.15;17.27;;;;;;;16.92;49.93;101838.13;5073134;28;20033;-59
2020/12/02 06:54:00;;;;;;;38.40;16.63;;;;;;;16.81;50.21;101833.38;5073173;28;20111;-58
2020/12/02 06:56:26;;;;;;;37.43;17.57;;;;;;;16.90;49.82;101838.34;5073830;28;20387;-61
2020/12/02 06:59:04;;;;;;;43.60;16.85;;;;;;;16.65;50.16;101823.88;5074266;28;20032;-59
2020/12/02 07:01:34;;;;;;;36.45;15.98;;;;;;;16.75;50.31;101830.50;5074116;28;20041;-59
2020/12/02 07:04:05;;;;;;;37.63;17.10;;;;;;;16.63;50.73;101824.09;5073626;28;20037;-55
2020/12/02 07:06:32;;;;;;;45.67;18.65;;;;;;;16.57;51.20;101835.75;5069700;28;20496;-61
2020/12/02 07:09:14;;;;;;;38.67;16.65;;;;;;;16.74;50.70;101836.94;5065351;28;20033;-60
2020/12/02 07:11:52;;;;;;;43.22;18.45;;;;;;;16.68;50.53;101815.34;5074105;28;20475;-60
2020/12/02 07:14:26;;;;;;;38.38;17.88;;;;;;;16.87;49.76;101830.66;5071176;28;20036;-60
2020/12/02 07:16:58;;;;;;;36.15;17.45;;;;;;;16.51;50.93;101828.50;5063431;28;20040;-60
2020/12/02 07:19:30;;;;;;;35.40;15.57;;;;;;;16.93;49.74;101831.69;5053360;28;20037;-60
2020/12/02 07:22:04;;;;;;;42.13;17.75;;;;;;;16.65;50.23;101824.72;5057770;28;20036;-59
2020/12/02 07:24:40;;;;;;;37.80;17.23;;;;;;;16.90;49.69;101832.13;5061443;28;20036;-59
2020/12/02 07:27:06;;;;;;;40.28;17.80;;;;;;;16.80;49.79;101820.91;5059105;28;20044;-59
2020/12/02 07:29:32;;;;;;;35.42;16.25;;;;;;;17.08;49.42;101830.63;5054037;28;20045;-60
2020/12/02 07:32:19;;;;;;;41.22;17.02;;;;;;;16.99;49.61;101830.84;5053497;28;20060;-59
2020/12/02 07:34:45;;;;;;;38.67;18.42;;;;;;;16.87;49.84;101833.38;5063815;28;20045;-60
2020/12/02 07:37:13;;;;;;;42.53;17.17;;;;;;;16.88;49.96;101834.22;5072129;28;20117;-61
2020/12/02 07:39:50;;;;;;;38.85;17.95;;;;;;;16.85;50.10;101823.84;5073237;28;20037;-60
2020/12/02 07:42:25;;;;;;;40.15;18.33;;;;;;;16.69;50.96;101825.09;5072622;28;20043;-59
2020/12/02 07:45:15;;;;;;;39.83;17.67;;;;;;;16.83;50.46;101823.19;5071984;28;20109;-59
2020/12/02 07:47:47;;;;;;;43.42;17.38;;;;;;;16.84;50.33;101824.84;5072160;28;20044;-59
2020/12/02 07:50:34;;;;;;;47.35;18.42;;;;;;;16.78;50.55;101815.75;5072903;28;20040;-59
2020/12/02 07:53:12;;;;;;;41.67;16.67;;;;;;;16.70;50.86;101811.41;5072934;28;20036;-59
2020/12/02 07:55:46;;;;;;;47.65;20.38;;;;;;;16.29;52.80;101813.38;5071341;28;20036;-60
2020/12/02 07:58:18;;;;;;;40.10;16.83;;;;;;;16.63;51.38;101822.22;5071844;28;20360;-59
2020/12/02 08:00:46;;;;;;;46.58;17.52;;;;;;;16.53;51.90;101816.44;5073258;28;20052;-60
2020/12/02 08:03:25;;;;;;;38.22;16.45;;;;;;;16.54;51.52;101815.41;5071666;28;20400;-58
2020/12/02 08:06:10;;;;;;;39.95;17.58;;;;;;;16.66;50.98;101810.19;5071694;28;20040;-59
2020/12/02 08:08:36;;;;;;;34.03;15.25;;;;;;;16.67;51.27;101811.84;5070570;28;20036;-59
2020/12/02 08:11:05;;;;;;;36.93;15.50;;;;;;;16.78;50.70;101811.16;5061912;28;20041;-59
2020/12/02 08:13:32;;;;;;;40.28;16.65;;;;;;;17.08;49.77;101807.13;5064334;28;20105;-60
2020/12/02 08:15:58;;;;;;;38.28;15.82;;;;;;;17.08;49.56;101800.91;5073484;28;20024;-60
2020/12/02 08:18:29;;;;;;;41.50;16.70;;;;;;;16.97;49.71;101795.09;5068331;28;20037;-60
2020/12/02 08:21:11;;;;;;;44.70;16.50;;;;;;;16.94;49.72;101789.28;5072844;28;20093;-61
2020/12/02 08:23:38;;;;;;;36.15;14.82;;;;;;;16.89;50.00;101798.03;5068785;28;20035;-60
2020/12/02 08:26:08;;;;;;;35.88;15.75;;;;;;;17.02;49.78;101800.69;5056232;28;20032;-56
2020/12/02 08:28:37;;;;;;;35.60;13.98;;;;;;;16.83;49.69;101804.28;5072670;28;20036;-60
2020/12/02 08:31:17;;;;;;;36.22;15.52;;;;;;;16.92;49.62;101798.44;5039473;28;20104;-60
2020/12/02 08:34:11;;;;;;;39.85;15.13;;;;;;;16.71;50.58;101796.00;5072865;28;20402;-60
2020/12/02 08:36:44;;;;;;;37.50;16.90;;;;;;;16.71;50.21;101790.63;5072507;28;20032;-61
2020/12/02 08:39:10;;;;;;;37.35;14.75;;;;;;;16.72;50.31;101785.00;5071954;28;20044;-60
2020/12/02 08:41:46;;;;;;;38.38;15.70;;;;;;;16.84;49.88;101774.38;5071863;28;20460;-60
2020/12/02 08:44:15;;;;;;;37.28;15.52;;;;;;;17.01;49.56;101787.44;5071967;28;20119;-59
2020/12/02 08:46:53;;;;;;;38.25;15.52;;;;;;;16.83;49.88;101771.88;5071849;28;20363;-59
2020/12/02 08:49:33;;;;;;;41.88;16.48;;;;;;;16.64;50.63;101782.56;5071659;28;20411;-61
2020/12/02 08:51:58;;;;;;;35.17;15.55;;;;;;;16.82;50.15;101778.31;5072218;28;20093;-60
2020/12/02 08:54:25;;;;;;;43.60;16.23;;;;;;;16.96;49.77;101771.81;5070401;28;20472;-59
2020/12/02 08:56:53;;;;;;;35.78;16.00;;;;;;;16.76;50.43;101769.22;5072191;28;20028;-60
2020/12/02 08:59:19;;;;;;;38.17;15.73;;;;;;;16.60;51.00;101768.66;5071346;28;20468;-60
2020/12/02 09:01:44;;;;;;;42.87;17.47;;;;;;;16.66;50.84;101771.53;5071594;28;20115;-60
2020/12/02 09:04:10;;;;;;;43.13;16.60;;;;;;;16.62;50.82;101765.75;5070959;28;20033;-60
2020/12/02 09:06:36;;;;;;;40.75;16.17;;;;;;;16.68;51.06;101772.97;5071753;28;20032;-60
2020/12/02 09:09:02;;;;;;;36.90;16.60;;;;;;;16.98;50.30;101769.75;5071987;28;20032;-60
2020/12/02 09:11:31;;;;;;;41.70;16.27;;;;;;;16.57;50.82;101752.03;5070163;28;20035;-60
2020/12/02 09:13:58;;;;;;;49.40;18.98;;;;;;;16.55;51.42;101756.81;5071964;28;20425;-60
2020/12/02 09:16:41;;;;;;;44.75;17.05;;;;;;;16.69;51.17;101755.75;5068629;28;20472;-59
2020/12/02 09:19:11;;;;;;;45.53;16.98;;;;;;;17.01;49.84;101750.41;5056035;28;20029;-56
2020/12/02 09:21:37;;;;;;;36.50;17.23;;;;;;;17.12;49.40;101753.47;5052104;28;20052;-59
2020/12/02 09:24:03;;;;;;;38.03;16.30;;;;;;;17.29;48.71;101760.00;5070448;28;20032;-59
2020/12/02 09:26:33;;;;;;;35.38;15.50;;;;;;;17.14;48.89;101756.78;5070557;28;20032;-60
2020/12/02 09:28:59;;;;;;;37.53;14.70;;;;;;;17.27;48.26;101732.38;5070622;28;20082;-60
2020/12/02 09:31:28;;;;;;;35.95;15.68;;;;;;;17.11;48.44;101736.44;5069447;28;20670;-60
2020/12/02 09:33:53;;;;;;;33.95;14.20;;;;;;;17.37;47.75;101747.28;5072519;28;20036;-60
2020/12/02 09:36:20;;;;;;;36.47;14.47;;;;;;;17.29;47.80;101735.69;5072599;28;20428;-60
2020/12/02 09:38:48;;;;;;;30.38;12.95;;;;;;;17.18;48.08;101744.50;5074297;28;20104;-60
2020/12/02 09:41:35;;;;;;;27.40;11.80;;;;;;;17.04;48.25;101741.88;5070235;28;20514;-59
2020/12/02 09:44:20;;;;;;;26.75;11.40;;;;;;;16.96;48.32;101733.19;5071771;28;20033;-60
2020/12/02 09:46:53;;;;;;;28.60;11.65;;;;;;;17.26;47.68;101733.41;5070882;28;20082;-59
2020/12/02 09:49:21;;;;;;;24.20;11.63;;;;;;;17.34;47.21;101737.72;5071021;28;20147;-58
2020/12/02 09:52:04;;;;;;;26.33;12.63;;;;;;;17.25;47.45;101739.88;5071793;28;20028;-59
2020/12/02 09:54:39;;;;;;;29.15;12.82;;;;;;;17.36;47.08;101726.72;5070810;28;20094;-60
2020/12/02 09:57:13;;;;;;;27.58;11.23;;;;;;;17.33;46.93;101725.25;5070570;28;20119;-60
2020/12/02 09:59:39;;;;;;;20.48;10.48;;;;;;;17.28;47.33;101739.44;5071539;28;20032;-59
2020/12/02 10:02:28;;;;;;;23.27;9.98;;;;;;;17.05;47.54;101715.69;5070639;28;20036;-60
2020/12/02 10:05:05;;;;;;;24.50;10.85;;;;;;;17.02;47.84;101722.34;5071074;28;20065;-60
2020/12/02 10:07:59;;;;;;;;;;;;;;;17.05;47.99;101721.91;5071344;28;20292;-59
2020/12/02 10:11:02;;;;;;;19.35;9.88;;;;;;;17.24;47.65;101713.06;5068228;28;19912;-60
2020/12/02 10:14:05;;;;;;;30.25;11.52;;;;;;;17.25;47.57;101712.03;5070920;28;20424;-59
2020/12/02 10:16:52;;;;;;;27.77;12.35;;;;;;;16.93;48.35;101712.81;5070332;28;20520;-60
2020/12/02 10:19:26;;;;;;;24.67;11.30;;;;;;;16.95;48.02;101702.63;5066497;28;20372;-59
2020/12/02 10:21:51;;;;;;;24.20;9.88;;;;;;;16.63;49.33;101700.69;5071541;28;20036;-60
2020/12/02 10:24:55;;;;;;;24.93;10.60;;;;;;;17.07;48.26;101694.69;5073051;28;20082;-60
2020/12/02 10:27:51;;;;;;;21.80;10.98;;;;;;;17.18;48.18;101691.28;5059410;28;20052;-59
2020/12/02 10:30:21;;;;;;;26.83;12.05;;;;;;;17.07;48.26;101691.97;5073913;28;20360;-59
2020/12/02 10:33:01;;;;;;;32.40;12.70;;;;;;;17.06;48.20;101693.84;5075009;28;20033;-58
2020/12/02 10:35:29;;;;;;;26.35;11.98;;;;;;;17.10;48.31;101688.81;5074239;28;20032;-60
2020/12/02 10:37:58;;;;;;;25.05;12.20;;;;;;;17.20;47.75;101664.88;5074806;28;20032;-60
2020/12/02 10:40:26;;;;;;;25.15;10.23;;;;;;;16.96;48.39;101681.84;5068834;28;20047;-59
2020/12/02 10:43:02;;;;;;;26.73;11.55;;;;;;;16.95;48.18;101681.00;5053464;28;20033;-59
2020/12/02 10:45:28;;;;;;;26.92;11.10;;;;;;;17.00;48.25;101665.00;5053651;28;20036;-61
2020/12/02 10:48:31;;;;;;;25.95;10.40;;;;;;;16.85;48.45;101659.88;5054531;28;20376;-60
2020/12/02 10:50:57;;;;;;;24.42;9.73;;;;;;;16.99;48.23;101668.75;5053928;28;20029;-61
2020/12/02 10:53:25;;;;;;;27.63;10.82;;;;;;;17.15;47.86;101661.16;5067380;28;20531;-59
2020/12/02 10:55:52;;;;;;;26.83;11.88;;;;;;;17.32;47.25;101651.47;5073118;28;20043;-60
2020/12/02 10:58:25;;;;;;;;;;;;;;;17.18;47.52;101644.50;5072798;28;20040;-59
2020/12/02 11:00:53;;;;;;;23.75;10.10;;;;;;;16.94;48.13;101638.81;5072235;28;19960;-59
2020/12/02 11:03:28;;;;;;;23.88;11.43;;;;;;;16.91;48.17;101637.38;5073748;28;20090;-59
2020/12/02 11:06:15;;;;;;;26.75;11.98;;;;;;;16.46;49.65;101632.88;5074525;28;20102;-60
2020/12/02 11:09:06;;;;;;;25.20;10.80;;;;;;;16.65;49.33;101634.84;5059895;28;20028;-59
2020/12/02 11:11:37;;;;;;;25.63;10.00;;;;;;;16.88;48.31;101627.00;5058363;28;20033;-59
2020/12/02 11:14:12;;;;;;;25.95;10.82;;;;;;;16.85;48.34;101619.34;5074011;28;20040;-60
2020/12/02 11:16:45;;;;;;;28.83;11.55;;;;;;;16.81;48.55;101612.72;5072942;28;20074;-60
2020/12/02 11:19:33;;;;;;;26.88;11.73;;;;;;;17.05;47.87;101619.22;5073978;28;20357;-59
2020/12/02 11:22:11;;;;;;;22.98;10.05;;;;;;;17.02;47.91;101608.84;5072585;28;20036;-60
2020/12/02 11:25:08;;;;;;;26.95;10.82;;;;;;;17.04;47.42;101606.75;5058444;28;20082;-60
2020/12/02 11:27:34;;;;;;;23.52;10.45;;;;;;;17.10;47.37;101604.25;5053396;28;20033;-59
2020/12/02 11:30:01;;;;;;;21.47;10.07;;;;;;;17.08;47.09;101590.94;5053098;28;20044;-58
2020/12/02 11:32:36;;;;;;;19.55;10.02;;;;;;;17.10;47.33;101594.25;5052270;28;20258;-59
2020/12/02 11:35:39;;;;;;;22.80;10.40;;;;;;;16.97;47.88;101595.16;5052683;28;20472;-59